Time;durP1;ratioP1;P1;durP2;ratioP2;P2;SDS_P1;SDS_P2;PMS_P1;PMS_P2;Temp;Humidity;BMP_temperature;BMP_pressure;BME280_temperature;BME280_humidity;BME280_pressure;Samples;Min_cycle;Max_cycle;Signal;HPM_P1;HPM_P2
2023/06/03 00:01:50;;;;;;;6.40;5.07;;;18.60;99.90;;;;;;4985148;28;20746;-51
2023/06/03 00:04:17;;;;;;;7.90;5.20;;;18.60;99.90;;;;;;4983829;28;20579;-51
2023/06/03 00:06:46;;;;;;;4.73;4.33;;;18.60;99.90;;;;;;4971452;28;20256;-51
2023/06/03 00:09:13;;;;;;;4.83;4.53;;;18.50;99.90;;;;;;4978147;28;20363;-51
2023/06/03 00:11:40;;;;;;;4.80;4.43;;;18.40;99.90;;;;;;4979079;28;20208;-51
2023/06/03 00:14:07;;;;;;;5.00;4.70;;;18.20;99.90;;;;;;4981333;28;20255;-52
2023/06/03 00:16:34;;;;;;;5.03;4.50;;;18.20;99.90;;;;;;4973891;28;20263;-51
2023/06/03 00:19:01;;;;;;;8.03;4.73;;;18.10;99.90;;;;;;4973449;28;20682;-51
2023/06/03 00:21:29;;;;;;;8.57;4.03;;;18.10;99.90;;;;;;4968205;28;20205;-50
2023/06/03 00:23:58;;;;;;;6.13;5.57;;;18.20;99.90;;;;;;4971400;28;20204;-51
2023/06/03 00:26:25;;;;;;;4.47;4.17;;;18.20;99.90;;;;;;4973174;28;20247;-51
2023/06/03 00:28:52;;;;;;;5.20;4.70;;;18.00;99.90;;;;;;4973465;28;20219;-50
2023/06/03 00:31:19;;;;;;;4.93;4.37;;;18.00;99.90;;;;;;4977376;28;20203;-51
2023/06/03 00:33:46;;;;;;;5.20;4.27;;;18.00;99.90;;;;;;4984482;28;20882;-51
2023/06/03 00:36:13;;;;;;;6.27;5.67;;;17.90;99.90;;;;;;4988167;28;20679;-51
2023/06/03 00:38:40;;;;;;;7.17;4.73;;;17.80;99.90;;;;;;4966684;28;20725;-53
2023/06/03 00:41:08;;;;;;;5.10;4.57;;;17.80;99.90;;;;;;4975096;28;20219;-53
2023/06/03 00:43:35;;;;;;;5.10;4.67;;;17.80;99.90;;;;;;4977447;28;20283;-53
2023/06/03 00:46:02;;;;;;;6.10;5.50;;;17.70;99.90;;;;;;4972563;28;20682;-53
2023/06/03 00:48:29;;;;;;;6.27;4.83;;;17.60;99.90;;;;;;4971829;28;20251;-53
2023/06/03 00:50:56;;;;;;;5.33;5.00;;;17.50;99.90;;;;;;4976707;28;20271;-53
2023/06/03 00:53:23;;;;;;;5.60;5.10;;;17.50;99.90;;;;;;4986330;28;20244;-53
2023/06/03 00:55:50;;;;;;;5.17;4.77;;;17.40;99.90;;;;;;4983386;28;20211;-52
2023/06/03 00:58:19;;;;;;;6.00;5.33;;;17.30;99.90;;;;;;4976811;28;20224;-53
2023/06/03 01:00:46;;;;;;;5.30;5.00;;;17.20;99.90;;;;;;4972669;28;20220;-53
2023/06/03 01:03:15;;;;;;;5.90;5.40;;;17.20;99.90;;;;;;4972212;28;20200;-53
2023/06/03 01:05:42;;;;;;;5.03;4.53;;;17.10;99.90;;;;;;4979913;28;20211;-51
2023/06/03 01:08:20;;;;;;;5.50;5.00;;;17.10;99.90;;;;;;4976827;28;20204;-51
2023/06/03 01:10:55;;;;;;;5.33;4.93;;;17.10;99.90;;;;;;4992687;28;20231;-51
2023/06/03 01:13:29;;;;;;;5.70;5.10;;;17.00;99.90;;;;;;4969392;28;20201;-51
2023/06/03 01:16:04;;;;;;;4.70;4.40;;;16.90;99.90;;;;;;4980913;28;20200;-51
2023/06/03 01:18:32;;;;;;;4.90;4.60;;;16.90;99.90;;;;;;4973085;28;20211;-51
2023/06/03 01:21:02;;;;;;;5.47;5.10;;;16.80;99.90;;;;;;4973135;28;20649;-51
2023/06/03 01:23:33;;;;;;;6.30;5.27;;;16.80;99.90;;;;;;4980662;28;20621;-51
2023/06/03 01:26:01;;;;;;;5.17;4.87;;;16.80;99.90;;;;;;4983109;28;20683;-51
2023/06/03 01:28:29;;;;;;;5.93;5.30;;;16.80;99.90;;;;;;4975777;28;20200;-50
2023/06/03 01:30:58;;;;;;;5.30;5.00;;;16.70;99.90;;;;;;4972759;28;20224;-51
2023/06/03 01:33:26;;;;;;;6.37;5.67;;;16.70;99.90;;;;;;4992254;28;20235;-51
2023/06/03 01:35:56;;;;;;;5.97;4.70;;;16.60;99.90;;;;;;4980044;28;22060;-50
2023/06/03 01:38:24;;;;;;;5.83;5.33;;;16.60;99.90;;;;;;4978744;28;20204;-51
2023/06/03 01:40:54;;;;;;;7.07;5.37;;;16.50;99.90;;;;;;4972620;28;20271;-51
2023/06/03 01:43:21;;;;;;;6.70;5.40;;;16.50;99.90;;;;;;4975422;28;20673;-51
2023/06/03 01:45:48;;;;;;;6.63;5.30;;;16.40;99.90;;;;;;4971423;28;20215;-51
2023/06/03 01:48:15;;;;;;;8.87;5.47;;;16.40;99.90;;;;;;4979557;28;20209;-51
2023/06/03 01:50:42;;;;;;;6.03;5.30;;;16.30;99.90;;;;;;4971375;28;20279;-51
2023/06/03 01:53:10;;;;;;;5.60;4.97;;;16.30;99.90;;;;;;4984020;28;20266;-51
2023/06/03 01:55:37;;;;;;;5.70;5.30;;;16.20;99.90;;;;;;4992584;28;20211;-51
2023/06/03 01:58:05;;;;;;;5.30;4.67;;;16.20;99.90;;;;;;4995575;28;20208;-50
2023/06/03 02:00:33;;;;;;;5.53;5.03;;;16.10;99.90;;;;;;4982417;28;20220;-51
2023/06/03 02:02:59;;;;;;;5.87;5.20;;;16.10;99.90;;;;;;4971846;28;20263;-51
2023/06/03 02:05:26;;;;;;;5.67;5.27;;;16.00;99.90;;;;;;4990181;28;20196;-51
2023/06/03 02:07:55;;;;;;;5.70;5.23;;;16.00;99.90;;;;;;4995573;28;20203;-50
2023/06/03 02:10:22;;;;;;;5.47;5.17;;;16.00;99.90;;;;;;4995225;28;20650;-51
2023/06/03 02:12:49;;;;;;;5.97;4.83;;;16.00;99.90;;;;;;4994223;28;20208;-50
2023/06/03 02:15:17;;;;;;;5.07;4.70;;;16.00;99.90;;;;;;4973571;28;20730;-50
2023/06/03 02:17:44;;;;;;;5.83;5.40;;;16.10;99.90;;;;;;4975781;28;20247;-51
2023/06/03 02:20:12;;;;;;;5.87;5.47;;;16.20;99.90;;;;;;4998708;23;20884;-54
2023/06/03 02:22:39;;;;;;;5.43;4.93;;;16.20;99.90;;;;;;5029683;28;20241;-54
2023/06/03 02:25:08;;;;;;;6.37;5.47;;;16.30;99.90;;;;;;5034099;28;20202;-54
2023/06/03 02:27:36;;;;;;;6.17;5.33;;;16.40;99.90;;;;;;5012887;28;20198;-56
2023/06/03 02:30:04;;;;;;;6.43;5.80;;;16.30;99.90;;;;;;5021984;28;20223;-56
2023/06/03 02:32:33;;;;;;;6.30;5.70;;;16.40;99.90;;;;;;5019572;28;20217;-54
2023/06/03 02:35:00;;;;;;;9.83;6.90;;;16.30;99.90;;;;;;5026482;28;20242;-56
2023/06/03 02:37:27;;;;;;;5.07;4.17;;;16.10;99.90;;;;;;5016654;28;20337;-57
2023/06/03 02:39:54;;;;;;;6.37;5.80;;;16.00;99.90;;;;;;5010215;28;20200;-57
2023/06/03 02:42:21;;;;;;;7.60;6.37;;;15.90;99.90;;;;;;5011565;28;20266;-56
2023/06/03 02:44:48;;;;;;;5.33;4.93;;;15.80;99.90;;;;;;5021868;28;20296;-56
2023/06/03 02:47:15;;;;;;;6.63;6.03;;;15.80;99.90;;;;;;5017543;28;20199;-56
2023/06/03 02:49:45;;;;;;;7.00;5.97;;;15.70;99.90;;;;;;5025200;28;20252;-56
2023/06/03 02:52:13;;;;;;;6.37;5.27;;;15.70;99.90;;;;;;5021932;28;20739;-57
2023/06/03 02:54:40;;;;;;;6.27;5.77;;;15.70;99.90;;;;;;5017548;28;20254;-56
2023/06/03 02:57:08;;;;;;;6.50;5.90;;;15.70;99.90;;;;;;5013938;28;20261;-56
2023/06/03 02:59:36;;;;;;;6.37;5.77;;;15.60;99.90;;;;;;5013840;28;20294;-57
2023/06/03 03:02:03;;;;;;;5.20;4.83;;;15.60;99.90;;;;;;5008734;28;20230;-56
2023/06/03 03:04:36;;;;;;;5.20;4.70;;;15.60;99.90;;;;;;5017646;28;20210;-56
2023/06/03 03:07:07;;;;;;;5.57;5.17;;;15.50;99.90;;;;;;5023639;28;20210;-53
2023/06/03 03:09:34;;;;;;;7.77;5.43;;;15.50;99.90;;;;;;5025634;28;20732;-56
2023/06/03 03:12:02;;;;;;;7.93;6.43;;;15.50;99.90;;;;;;5014713;28;20253;-56
2023/06/03 03:14:29;;;;;;;8.00;6.00;;;15.50;99.90;;;;;;5027824;28;20222;-56
2023/06/03 03:16:56;;;;;;;9.77;6.27;;;15.50;99.90;;;;;;5033132;28;20202;-56
2023/06/03 03:19:23;;;;;;;8.00;5.90;;;15.40;99.90;;;;;;5019592;28;20657;-55
2023/06/03 03:21:50;;;;;;;6.40;6.00;;;15.60;99.90;;;;;;5030623;28;20727;-56
2023/06/03 03:24:19;;;;;;;5.83;5.40;;;15.70;99.90;;;;;;5021663;28;20572;-56
2023/06/03 03:26:46;;;;;;;6.93;6.43;;;15.70;99.90;;;;;;5020707;28;20202;-56
2023/06/03 03:29:13;;;;;;;7.20;6.33;;;15.60;99.90;;;;;;5013377;28;20261;-55
2023/06/03 03:31:40;;;;;;;8.17;5.37;;;15.70;99.90;;;;;;5018965;28;20268;-57
2023/06/03 03:34:07;;;;;;;6.03;5.53;;;15.70;99.90;;;;;;5015412;28;20256;-56
2023/06/03 03:36:36;;;;;;;7.07;6.00;;;15.80;99.90;;;;;;5014637;28;20207;-55
2023/06/03 03:39:04;;;;;;;7.63;7.10;;;15.80;99.90;;;;;;5015532;28;20253;-57
2023/06/03 03:41:33;;;;;;;7.40;6.57;;;15.80;99.90;;;;;;5032514;28;20642;-56
2023/06/03 03:44:00;;;;;;;7.33;5.93;;;15.80;99.90;;;;;;5011725;28;20226;-56
2023/06/03 03:46:27;;;;;;;6.73;5.60;;;15.80;99.90;;;;;;5012591;28;20199;-56
2023/06/03 03:48:54;;;;;;;6.77;5.80;;;15.80;99.90;;;;;;5012411;28;20261;-55
2023/06/03 03:51:21;;;;;;;7.30;6.63;;;15.80;99.90;;;;;;5024240;28;20218;-56
2023/06/03 03:53:49;;;;;;;8.13;5.90;;;15.80;99.90;;;;;;5032327;28;20210;-56
2023/06/03 03:56:21;;;;;;;8.83;6.97;;;15.80;99.90;;;;;;5032611;28;20329;-56
2023/06/03 03:58:50;;;;;;;9.10;7.57;;;15.80;99.90;;;;;;5020045;28;20291;-56
2023/06/03 04:01:22;;;;;;;6.90;6.27;;;15.80;99.90;;;;;;5009796;28;20653;-56
2023/06/03 04:03:50;;;;;;;7.43;6.00;;;15.80;99.90;;;;;;5021814;28;20207;-56
2023/06/03 04:06:36;;;;;;;8.20;5.67;;;15.80;99.90;;;;;;5022051;28;20282;-55
2023/06/03 04:09:04;;;;;;;6.27;5.50;;;15.80;99.90;;;;;;5020571;28;20283;-56
2023/06/03 04:11:36;;;;;;;7.00;6.40;;;15.80;99.90;;;;;;5012167;28;20313;-56
2023/06/03 04:14:05;;;;;;;6.97;6.33;;;15.80;99.90;;;;;;5011111;28;20643;-56
2023/06/03 04:16:53;;;;;;;6.53;5.73;;;15.80;99.90;;;;;;5012263;28;20687;-56
2023/06/03 04:19:30;;;;;;;6.70;6.10;;;15.90;99.90;;;;;;5024201;28;20199;-55
2023/06/03 04:21:57;;;;;;;7.00;5.83;;;15.80;99.90;;;;;;5012753;28;20229;-55
2023/06/03 04:24:25;;;;;;;6.07;5.50;;;15.80;99.90;;;;;;5020313;28;20199;-56
2023/06/03 04:26:52;;;;;;;10.53;5.70;;;15.70;99.90;;;;;;5021711;28;20738;-56
2023/06/03 04:29:21;;;;;;;8.73;5.87;;;15.60;99.90;;;;;;5025628;28;20198;-56
2023/06/03 04:31:48;;;;;;;7.20;6.50;;;15.60;99.90;;;;;;5032264;28;20222;-55
2023/06/03 04:34:15;;;;;;;8.60;7.17;;;15.80;99.90;;;;;;5019021;28;20198;-56
2023/06/03 04:36:42;;;;;;;9.23;6.40;;;15.90;99.90;;;;;;5021773;28;20615;-58
2023/06/03 04:39:10;;;;;;;7.90;6.47;;;15.80;99.90;;;;;;5024395;28;20554;-57
2023/06/03 04:41:38;;;;;;;6.80;6.13;;;15.90;99.90;;;;;;5018963;28;20597;-55
2023/06/03 04:44:08;;;;;;;7.13;6.50;;;16.00;99.90;;;;;;5023464;28;20217;-56
2023/06/03 04:46:36;;;;;;;9.33;6.57;;;15.90;99.90;;;;;;5020655;28;20199;-55
2023/06/03 04:49:04;;;;;;;8.37;6.20;;;15.90;99.90;;;;;;5013873;28;20206;-54
2023/06/03 04:51:33;;;;;;;7.30;6.57;;;16.10;99.90;;;;;;5016105;28;20696;-54
2023/06/03 04:54:01;;;;;;;9.03;6.43;;;16.10;99.90;;;;;;5030611;28;20198;-54
2023/06/03 04:56:30;;;;;;;7.83;6.00;;;16.10;99.90;;;;;;5017197;28;20203;-55
2023/06/03 04:59:00;;;;;;;7.30;6.17;;;16.10;99.90;;;;;;5010737;28;20199;-56
2023/06/03 05:01:28;;;;;;;9.27;6.60;;;16.20;99.90;;;;;;5009926;28;20310;-56
2023/06/03 05:03:57;;;;;;;7.40;5.90;;;16.30;99.90;;;;;;5011778;28;20207;-56
2023/06/03 05:06:24;;;;;;;9.70;7.30;;;16.50;99.90;;;;;;5011955;28;20207;-55
2023/06/03 05:08:51;;;;;;;9.47;7.23;;;16.40;99.90;;;;;;5010997;28;20283;-56
2023/06/03 05:11:19;;;;;;;7.67;6.90;;;16.50;99.90;;;;;;5006451;28;20259;-56
2023/06/03 05:13:46;;;;;;;13.17;8.10;;;16.50;99.90;;;;;;5011037;28;20564;-56
2023/06/03 05:16:13;;;;;;;9.93;6.70;;;16.70;99.90;;;;;;5031125;28;20202;-55
2023/06/03 05:18:40;;;;;;;9.97;6.73;;;17.20;99.90;;;;;;5009036;28;20206;-56
2023/06/03 05:21:09;;;;;;;7.47;6.87;;;18.10;99.90;;;;;;5001561;28;20288;-56
2023/06/03 05:23:36;;;;;;;8.57;6.57;;;18.30;99.90;;;;;;5009731;28;20215;-56
2023/06/03 05:26:04;;;;;;;6.67;6.17;;;18.30;99.90;;;;;;5010149;28;20207;-55
2023/06/03 05:28:31;;;;;;;8.25;6.30;;;18.90;99.90;;;;;;5007180;28;20539;-57
2023/06/03 05:30:58;;;;;;;9.23;6.87;;;19.70;99.90;;;;;;5020344;28;20281;-57
2023/06/03 05:33:28;;;;;;;8.07;7.17;;;19.70;99.90;;;;;;5018003;28;20203;-57
2023/06/03 05:35:55;;;;;;;9.40;7.27;;;19.50;99.90;;;;;;5010845;28;20234;-56
2023/06/03 05:38:24;;;;;;;9.30;7.07;;;19.10;99.90;;;;;;5009540;28;20230;-57
2023/06/03 05:40:52;;;;;;;6.67;6.07;;;18.80;99.90;;;;;;5018578;28;20716;-56
2023/06/03 05:43:19;;;;;;;8.43;6.73;;;18.70;99.90;;;;;;5017795;28;20206;-56
2023/06/03 05:45:47;;;;;;;7.57;6.87;;;18.70;99.90;;;;;;5022327;28;20272;-56
2023/06/03 05:48:14;;;;;;;8.63;6.83;;;18.30;99.90;;;;;;5014665;28;20668;-56
2023/06/03 05:50:49;;;;;;;9.27;6.73;;;18.70;99.90;;;;;;5019582;28;20318;-57
2023/06/03 05:53:20;;;;;;;8.57;7.77;;;19.00;99.90;;;;;;5010685;28;20198;-56
2023/06/03 05:55:48;;;;;;;7.07;6.47;;;18.90;99.90;;;;;;5012059;28;22128;-56
2023/06/03 05:58:15;;;;;;;8.07;7.27;;;19.00;99.90;;;;;;5011795;28;20203;-56
2023/06/03 06:00:42;;;;;;;9.73;6.63;;;19.90;99.90;;;;;;5013241;28;20223;-57
2023/06/03 06:03:09;;;;;;;9.40;7.17;;;20.70;99.90;;;;;;5009715;28;20253;-57
2023/06/03 06:05:36;;;;;;;9.00;6.27;;;20.80;99.90;;;;;;5011636;28;20222;-57
2023/06/03 06:08:03;;;;;;;9.33;6.43;;;21.20;99.90;;;;;;5016811;28;20298;-56
2023/06/03 06:10:31;;;;;;;9.47;7.57;;;20.60;99.90;;;;;;5026694;28;20238;-56
2023/06/03 06:12:59;;;;;;;8.70;7.97;;;20.60;99.90;;;;;;5021203;28;20223;-56
2023/06/03 06:15:30;;;;;;;7.37;6.67;;;20.40;99.90;;;;;;5021168;28;20257;-56
2023/06/03 06:17:57;;;;;;;9.50;7.47;;;20.70;99.90;;;;;;5014087;28;20286;-56
2023/06/03 06:20:24;;;;;;;7.43;6.73;;;21.00;99.90;;;;;;5013640;28;20330;-57
2023/06/03 06:22:51;;;;;;;7.73;6.87;;;21.60;99.90;;;;;;5013994;28;20581;-56
2023/06/03 06:25:18;;;;;;;9.90;7.10;;;22.70;99.90;;;;;;5013873;28;20261;-56
2023/06/03 06:27:46;;;;;;;10.20;7.13;;;23.60;99.90;;;;;;5013232;28;20296;-57
2023/06/03 06:30:15;;;;;;;11.60;6.23;;;24.10;99.90;;;;;;5011670;28;20693;-57
2023/06/03 06:32:49;;;;;;;8.47;7.67;;;24.40;99.90;;;;;;5020568;28;20266;-56
2023/06/03 06:35:18;;;;;;;8.17;7.53;;;24.20;99.90;;;;;;5013770;28;20203;-57
2023/06/03 06:37:45;;;;;;;7.00;6.50;;;23.70;99.90;;;;;;5010063;28;20203;-56
2023/06/03 06:40:18;;;;;;;9.40;7.33;;;23.60;99.90;;;;;;5013287;28;20243;-56
2023/06/03 06:42:45;;;;;;;8.97;7.47;;;23.90;99.90;;;;;;5012338;28;20217;-56
2023/06/03 06:45:17;;;;;;;7.27;6.77;;;23.90;99.90;;;;;;5010692;28;20717;-57
2023/06/03 06:47:44;;;;;;;7.90;7.17;;;24.30;99.90;;;;;;5017138;28;20620;-56
2023/06/03 06:50:42;;;;;;;8.50;7.63;;;25.40;99.90;;;;;;5017040;28;20227;-56
2023/06/03 06:53:09;;;;;;;7.67;6.70;;;25.80;99.90;;;;;;5007583;28;20273;-57
2023/06/03 06:55:42;;;;;;;8.57;7.77;;;25.90;99.90;;;;;;5011215;28;20381;-56
2023/06/03 06:58:10;;;;;;;7.80;7.13;;;26.50;99.90;;;;;;5007755;28;20245;-57
2023/06/03 07:00:40;;;;;;;7.67;6.77;;;26.10;99.90;;;;;;5010719;28;20226;-56
2023/06/03 07:03:08;;;;;;;9.20;7.93;;;25.70;99.90;;;;;;5007180;28;20211;-57
2023/06/03 07:05:36;;;;;;;12.90;8.00;;;25.40;99.90;;;;;;5009818;28;20203;-56
2023/06/03 07:08:03;;;;;;;10.97;7.57;;;24.80;99.90;;;;;;5020782;28;20734;-57
2023/06/03 07:10:30;;;;;;;9.07;7.77;;;24.50;99.90;;;;;;5023331;28;20254;-56
2023/06/03 07:12:57;;;;;;;9.30;8.47;;;23.70;99.90;;;;;;5017294;28;20318;-56
2023/06/03 07:15:24;;;;;;;9.43;8.10;;;23.30;99.90;;;;;;5012007;28;20203;-56
2023/06/03 07:17:54;;;;;;;10.83;8.63;;;23.30;99.90;;;;;;5009919;28;20660;-57
2023/06/03 07:20:22;;;;;;;8.57;7.13;;;23.70;99.90;;;;;;5016436;28;20226;-56
2023/06/03 07:22:49;;;;;;;8.20;7.30;;;23.90;99.90;;;;;;5022848;28;20261;-56
2023/06/03 07:25:31;;;;;;;7.83;7.23;;;25.00;99.90;;;;;;5026154;28;20199;-56
2023/06/03 07:27:58;;;;;;;7.80;7.07;;;26.00;99.90;;;;;;5014073;28;22295;-69
2023/06/03 07:30:25;;;;;;;7.57;6.87;;;26.70;99.90;;;;;;5012433;28;20215;-70
2023/06/03 07:32:58;;;;;;;10.67;8.07;;;26.50;99.90;;;;;;5014746;28;20654;-69
2023/06/03 07:35:25;;;;;;;11.03;7.33;;;26.00;99.90;;;;;;5016640;28;20194;-70
2023/06/03 07:37:52;;;;;;;10.80;7.97;;;26.10;99.90;;;;;;5024536;28;20210;-68
2023/06/03 07:40:19;;;;;;;9.03;8.13;;;25.80;99.90;;;;;;5029174;28;20226;-68
2023/06/03 07:42:49;;;;;;;8.80;7.97;;;26.20;99.90;;;;;;5020335;28;20661;-68
2023/06/03 07:45:16;;;;;;;11.23;9.47;;;26.00;99.90;;;;;;5011966;28;20273;-67
2023/06/03 07:47:43;;;;;;;8.33;7.47;;;25.00;99.90;;;;;;5011041;28;20203;-68
2023/06/03 07:50:23;;;;;;;8.97;7.53;;;24.80;99.90;;;;;;5007285;28;20662;-62
2023/06/03 07:53:00;;;;;;;8.47;7.63;;;25.50;99.90;;;;;;5019786;28;20226;-59
2023/06/03 07:55:33;;;;;;;10.03;8.73;;;25.60;99.90;;;;;;5022131;28;20199;-55
2023/06/03 07:58:00;;;;;;;9.57;8.57;;;25.30;99.90;;;;;;5022583;28;20203;-64
2023/06/03 08:00:27;;;;;;;10.00;8.00;;;24.80;99.90;;;;;;5031931;28;20716;-63
2023/06/03 08:02:54;;;;;;;9.67;7.80;;;25.10;99.90;;;;;;5016388;28;20196;-62
2023/06/03 08:05:32;;;;;;;9.40;8.70;;;25.20;99.90;;;;;;5025505;28;20664;-54
2023/06/03 08:08:00;;;;;;;8.70;7.80;;;25.30;99.90;;;;;;5028627;28;20210;-63
2023/06/03 08:10:27;;;;;;;8.93;8.23;;;26.40;99.90;;;;;;5009441;28;20716;-62
2023/06/03 08:12:54;;;;;;;10.17;9.27;;;26.90;98.90;;;;;;5018743;28;20787;-63
2023/06/03 08:15:27;;;;;;;8.60;7.97;;;25.80;99.90;;;;;;5012523;28;20202;-63
2023/06/03 08:17:55;;;;;;;10.70;8.53;;;25.80;99.90;;;;;;5016528;28;20322;-64
2023/06/03 08:20:27;;;;;;;11.07;7.90;;;25.60;99.90;;;;;;5013058;28;20226;-64
2023/06/03 08:22:56;;;;;;;9.83;8.03;;;26.30;99.90;;;;;;5011430;28;20719;-61
2023/06/03 08:25:23;;;;;;;10.60;8.17;;;26.10;99.90;;;;;;5071141;23;20226;-60
2023/06/03 08:27:51;;;;;;;11.43;8.57;;;26.60;99.90;;;;;;5046907;28;20197;-60
2023/06/03 08:30:20;;;;;;;9.83;8.40;;;26.80;99.90;;;;;;5030936;28;20194;-60
2023/06/03 08:32:48;;;;;;;8.83;7.93;;;26.40;99.30;;;;;;5031002;28;20240;-59
2023/06/03 08:35:16;;;;;;;9.90;8.90;;;26.70;99.70;;;;;;5038631;28;20218;-62
2023/06/03 08:37:45;;;;;;;9.90;8.00;;;26.80;98.50;;;;;;5038083;28;20234;-58
2023/06/03 08:40:14;;;;;;;12.63;9.73;;;27.10;98.80;;;;;;5029142;28;20226;-63
2023/06/03 08:42:43;;;;;;;10.37;8.53;;;26.70;98.60;;;;;;5028174;28;20250;-59
2023/06/03 08:45:11;;;;;;;9.07;8.23;;;26.70;98.90;;;;;;5029889;28;20222;-59
2023/06/03 08:48:07;;;;;;;10.40;9.37;;;26.60;97.90;;;;;;5033589;28;20206;-62
2023/06/03 08:50:35;;;;;;;9.50;8.60;;;26.50;98.00;;;;;;5026358;28;20234;-59
2023/06/03 08:53:08;;;;;;;10.10;9.17;;;25.50;98.70;;;;;;5026929;28;20258;-60
2023/06/03 08:55:37;;;;;;;11.80;8.67;;;26.00;99.90;;;;;;5039104;28;20213;-61
2023/06/03 08:58:08;;;;;;;10.37;8.37;;;26.80;99.00;;;;;;5045402;28;20325;-59
2023/06/03 09:00:36;;;;;;;9.37;8.57;;;26.40;98.70;;;;;;5038577;28;20226;-59
2023/06/03 09:03:05;;;;;;;8.97;8.27;;;26.40;99.20;;;;;;5030258;28;20284;-60
2023/06/03 09:05:33;;;;;;;8.97;8.27;;;26.90;99.20;;;;;;5029237;28;20627;-61
2023/06/03 09:08:01;;;;;;;11.10;8.33;;;26.70;98.00;;;;;;5042194;28;20259;-58
2023/06/03 09:10:33;;;;;;;11.63;8.50;;;26.60;98.20;;;;;;5033855;28;20285;-61
2023/06/03 09:13:02;;;;;;;8.87;8.00;;;26.70;97.10;;;;;;5031535;28;20253;-60
2023/06/03 09:15:30;;;;;;;10.03;9.00;;;26.50;97.80;;;;;;5033825;28;20756;-63
2023/06/03 09:17:57;;;;;;;9.37;8.43;;;26.00;99.20;;;;;;5028935;28;20209;-54
2023/06/03 09:20:25;;;;;;;9.10;8.20;;;25.60;99.60;;;;;;5019108;28;20283;-52
2023/06/03 09:22:55;;;;;;;10.33;9.43;;;25.90;98.30;;;;;;5026584;28;20253;-64
2023/06/03 09:25:22;;;;;;;10.10;9.10;;;25.90;98.40;;;;;;5038465;28;20229;-64
2023/06/03 09:27:51;;;;;;;8.77;7.97;;;26.00;99.90;;;;;;5033870;28;20198;-64
2023/06/03 09:30:18;;;;;;;8.80;8.10;;;26.30;98.30;;;;;;5027270;28;20194;-64
2023/06/03 09:32:45;;;;;;;9.73;8.67;;;27.10;99.50;;;;;;5035731;28;20232;-62
2023/06/03 09:35:13;;;;;;;11.37;9.67;;;27.30;98.90;;;;;;5042769;28;20214;-64
2023/06/03 09:37:57;;;;;;;10.30;8.90;;;27.80;97.70;;;;;;5043827;28;20209;-63
2023/06/03 09:40:27;;;;;;;10.33;9.20;;;27.60;98.80;;;;;;5021852;28;20202;-65
2023/06/03 09:42:55;;;;;;;9.67;8.33;;;27.50;98.40;;;;;;5031764;28;20256;-62
2023/06/03 09:45:24;;;;;;;10.40;9.30;;;27.50;97.90;;;;;;5031397;28;20217;-65
2023/06/03 09:47:51;;;;;;;16.17;10.40;;;27.80;97.40;;;;;;5029514;28;20618;-63
2023/06/03 09:50:18;;;;;;;11.53;10.43;;;27.60;97.40;;;;;;5026998;28;20211;-65
2023/06/03 09:52:45;;;;;;;10.07;9.17;;;26.90;99.50;;;;;;5025482;28;20241;-63
2023/06/03 09:55:14;;;;;;;11.17;10.10;;;27.50;99.70;;;;;;5032672;28;20222;-64
2023/06/03 09:57:41;;;;;;;10.37;9.50;;;27.70;98.90;;;;;;5031957;28;20202;-53
2023/06/03 10:00:11;;;;;;;9.27;8.47;;;28.00;98.40;;;;;;5036835;28;20205;-53
2023/06/03 10:02:39;;;;;;;11.48;9.80;;;28.40;98.40;;;;;;5023593;28;20199;-53
2023/06/03 10:05:25;;;;;;;10.50;9.40;;;28.10;98.30;;;;;;5028775;28;20696;-53
2023/06/03 10:07:54;;;;;;;12.87;9.87;;;27.70;98.90;;;;;;5026219;28;20206;-53
2023/06/03 10:10:22;;;;;;;11.30;9.30;;;28.00;98.60;;;;;;5034122;28;20202;-53
2023/06/03 10:12:50;;;;;;;9.10;8.30;;;28.10;98.40;;;;;;5028669;28;20695;-53
2023/06/03 10:15:39;;;;;;;11.87;9.10;;;28.60;98.80;;;;;;5032692;28;20218;-54
2023/06/03 10:18:07;;;;;;;9.90;9.00;;;28.70;98.10;;;;;;5033988;28;20236;-53
2023/06/03 10:20:37;;;;;;;11.63;9.75;;;28.30;97.60;;;;;;5049730;28;20205;-53
2023/06/03 10:23:06;;;;;;;10.70;9.27;;;28.40;99.60;;;;;;5047307;28;20207;-53
2023/06/03 10:25:39;;;;;;;9.27;8.35;;;28.50;98.00;;;;;;5032694;28;20234;-53
2023/06/03 10:28:07;;;;;;;8.55;8.02;;;28.80;99.00;;;;;;5033614;28;20567;-53
2023/06/03 10:30:36;;;;;;;10.65;9.00;;;29.40;98.40;;;;;;5027878;28;20249;-53
2023/06/03 10:33:04;;;;;;;10.15;8.30;;;30.00;98.40;;;;;;5030172;28;20642;-52
2023/06/03 10:35:32;;;;;;;11.02;8.85;;;29.90;98.20;;;;;;5035850;28;20256;-53
2023/06/03 10:38:00;;;;;;;9.77;8.77;;;29.10;98.00;;;;;;5054033;28;20568;-53
2023/06/03 10:40:28;;;;;;;13.68;9.40;;;29.10;99.00;;;;;;5034874;28;20202;-53
2023/06/03 10:42:56;;;;;;;9.63;8.75;;;28.80;97.30;;;;;;5034601;28;20273;-53
2023/06/03 10:45:23;;;;;;;8.98;8.07;;;29.00;96.20;;;;;;5034780;28;20230;-53
2023/06/03 10:47:54;;;;;;;15.27;9.23;;;29.50;97.40;;;;;;5034252;28;20264;-53
2023/06/03 10:50:28;;;;;;;10.63;9.80;;;29.80;97.30;;;;;;5024897;28;20289;-64
2023/06/03 10:53:13;;;;;;;10.55;8.27;;;28.60;97.20;;;;;;5034141;28;20218;-63
2023/06/03 10:55:52;;;;;;;11.35;9.73;;;28.20;99.90;;;;;;5032841;28;20257;-64
2023/06/03 10:58:22;;;;;;;9.27;8.45;;;27.80;99.90;;;;;;5024839;28;20198;-64
2023/06/03 11:00:56;;;;;;;9.80;8.90;;;27.80;99.60;;;;;;5033505;28;20226;-63
2023/06/03 11:03:26;;;;;;;15.18;10.93;;;27.20;99.80;;;;;;5032444;28;20664;-65
2023/06/03 11:05:54;;;;;;;14.38;9.75;;;27.20;99.60;;;;;;5034437;28;20226;-61
2023/06/03 11:08:57;;;;;;;9.88;8.88;;;27.00;99.90;;;;;;5038273;28;20211;-63
2023/06/03 11:12:06;;;;;;;9.63;8.40;;;27.10;99.90;;;;;;5023904;28;20286;-62
2023/06/03 11:14:56;;;;;;;9.90;9.07;;;27.50;99.70;;;;;;5032495;28;20218;-62
2023/06/03 11:17:24;;;;;;;10.50;9.47;;;26.80;99.90;;;;;;5039080;28;20240;-59
2023/06/03 11:19:55;;;;;;;11.10;9.93;;;26.40;99.90;;;;;;5027953;28;20218;-61
2023/06/03 11:22:42;;;;;;;10.73;9.63;;;26.50;99.60;;;;;;5030197;28;20202;-60
2023/06/03 11:25:25;;;;;;;11.40;10.17;;;26.20;99.90;;;;;;5038189;28;20291;-60
2023/06/03 11:27:52;;;;;;;9.47;8.40;;;26.20;99.90;;;;;;5035352;28;20229;-60
2023/06/03 11:30:20;;;;;;;14.67;10.47;;;26.40;99.90;;;;;;5037838;28;20206;-61
2023/06/03 11:33:10;;;;;;;11.33;10.27;;;26.30;99.90;;;;;;5033120;28;20276;-61
2023/06/03 11:35:38;;;;;;;13.17;8.70;;;25.70;99.90;;;;;;5037235;28;20222;-60
2023/06/03 11:38:05;;;;;;;9.80;8.87;;;25.80;99.90;;;;;;5033888;28;20203;-60
2023/06/03 11:40:45;;;;;;;11.53;9.60;;;26.00;99.90;;;;;;5039819;28;20572;-60
2023/06/03 11:43:13;;;;;;;10.03;9.13;;;26.10;99.90;;;;;;5032683;28;20202;-60
2023/06/03 11:45:40;;;;;;;12.20;9.07;;;26.20;99.90;;;;;;5032984;28;20257;-63
2023/06/03 11:48:10;;;;;;;9.37;8.40;;;26.30;99.90;;;;;;5042218;28;20198;-62
2023/06/03 11:50:50;;;;;;;10.77;9.83;;;26.20;99.90;;;;;;5032938;28;20194;-61
2023/06/03 11:53:30;;;;;;;9.00;8.20;;;26.10;99.90;;;;;;5031173;28;20225;-60
2023/06/03 11:56:08;;;;;;;9.57;8.67;;;26.00;99.90;;;;;;5035481;28;20218;-61
2023/06/03 11:58:36;;;;;;;7.87;7.33;;;26.20;99.90;;;;;;5034308;28;20229;-60
2023/06/03 12:01:08;;;;;;;9.90;9.10;;;26.30;99.90;;;;;;5035115;28;20195;-66
2023/06/03 12:03:36;;;;;;;16.07;9.07;;;26.40;99.90;;;;;;5034500;28;20194;-64
2023/06/03 12:06:06;;;;;;;11.83;8.43;;;26.00;99.90;;;;;;5040605;28;20218;-63
2023/06/03 12:08:49;;;;;;;8.77;7.87;;;26.00;99.90;;;;;;5036952;28;20215;-63
2023/06/03 12:11:26;;;;;;;9.00;8.17;;;26.00;99.90;;;;;;5026564;28;20205;-63
2023/06/03 12:13:54;;;;;;;7.73;7.10;;;26.20;99.90;;;;;;5028225;28;20218;-53
2023/06/03 12:16:32;;;;;;;10.43;9.13;;;26.00;99.90;;;;;;5029886;28;20280;-53
2023/06/03 12:19:00;;;;;;;8.50;7.53;;;25.70;99.90;;;;;;5035842;28;20286;-53
2023/06/03 12:21:29;;;;;;;13.50;7.80;;;25.70;99.90;;;;;;5030350;28;20205;-53
2023/06/03 12:23:57;;;;;;;7.97;7.00;;;25.90;99.90;;;;;;5039299;28;20198;-54
2023/06/03 12:26:25;;;;;;;8.53;7.73;;;26.10;99.90;;;;;;5031710;28;20229;-53
2023/06/03 12:28:53;;;;;;;8.50;7.67;;;26.30;99.90;;;;;;5033942;28;20293;-52
2023/06/03 12:31:20;;;;;;;10.90;7.47;;;26.30;99.90;;;;;;5035344;28;20205;-52
2023/06/03 12:33:47;;;;;;;7.63;6.80;;;26.10;99.90;;;;;;5035966;28;20215;-52
2023/06/03 12:36:14;;;;;;;7.73;6.93;;;26.20;99.90;;;;;;5051719;28;20240;-53
2023/06/03 12:38:56;;;;;;;9.90;6.97;;;26.20;99.90;;;;;;5035779;28;20684;-53
2023/06/03 12:41:24;;;;;;;8.63;7.93;;;26.40;99.90;;;;;;5033357;28;20220;-53
2023/06/03 12:44:00;;;;;;;10.53;6.63;;;26.30;99.90;;;;;;5043323;28;20610;-52
2023/06/03 12:46:28;;;;;;;8.33;7.17;;;26.30;99.10;;;;;;5044682;28;20288;-53
2023/06/03 12:48:57;;;;;;;7.20;6.60;;;26.20;99.90;;;;;;5030208;28;20252;-53
2023/06/03 12:51:25;;;;;;;6.73;6.23;;;26.30;99.40;;;;;;5031056;28;20257;-53
2023/06/03 12:53:56;;;;;;;8.90;6.83;;;26.20;98.90;;;;;;5049289;28;20248;-53
2023/06/03 12:56:25;;;;;;;7.93;7.10;;;26.20;99.90;;;;;;5033315;28;20222;-53